createdAt,value
2017-06-14T00:01:11.554Z,6.57
2017-06-14T00:03:39.924Z,7.40
2017-06-14T00:06:09.160Z,7.90
2017-06-14T00:08:37.997Z,7.57
2017-06-14T00:11:06.452Z,7.57
2017-06-14T00:13:35.917Z,7.43
2017-06-14T00:16:04.309Z,8.00
2017-06-14T00:18:32.688Z,7.20
2017-06-14T00:21:01.385Z,7.30
2017-06-14T00:23:30.178Z,8.20
2017-06-14T00:25:58.567Z,6.97
2017-06-14T00:28:26.872Z,8.40
2017-06-14T00:30:55.937Z,9.30
2017-06-14T00:33:24.637Z,7.43
2017-06-14T00:35:53.024Z,7.90
2017-06-14T00:38:22.173Z,7.93
2017-06-14T00:40:50.476Z,7.13
2017-06-14T00:43:18.776Z,7.27
2017-06-14T00:45:47.861Z,8.60
2017-06-14T00:48:16.661Z,7.90
2017-06-14T00:50:44.955Z,9.70
2017-06-14T00:53:13.281Z,7.90
2017-06-14T00:55:42.946Z,7.53
2017-06-14T00:58:11.339Z,8.33
2017-06-14T01:00:39.712Z,8.20
2017-06-14T01:03:08.084Z,8.80
2017-06-14T01:05:36.992Z,8.57
2017-06-14T01:08:05.283Z,8.53
2017-06-14T01:10:34.371Z,8.10
2017-06-14T01:13:03.161Z,7.70
2017-06-14T01:15:31.849Z,7.93
2017-06-14T01:18:00.260Z,8.27
2017-06-14T01:20:29.354Z,9.83
2017-06-14T01:22:58.128Z,9.73
2017-06-14T01:25:26.507Z,8.60
2017-06-14T01:27:54.792Z,8.77
2017-06-14T01:30:23.189Z,8.33
2017-06-14T01:32:51.564Z,8.90
2017-06-14T01:35:19.849Z,8.47
2017-06-14T01:37:48.158Z,9.83
2017-06-14T01:40:17.212Z,9.40
2017-06-14T01:42:45.913Z,9.17
2017-06-14T01:45:15.124Z,10.97
2017-06-14T01:47:43.406Z,8.43
2017-06-14T01:50:11.710Z,9.77
2017-06-14T01:52:40.648Z,9.67
2017-06-14T01:55:08.973Z,9.87
2017-06-14T01:57:37.357Z,9.47
2017-06-14T02:00:06.392Z,8.93
2017-06-14T02:02:35.039Z,9.87
2017-06-14T02:05:04.559Z,9.63
2017-06-14T02:07:33.440Z,10.87
2017-06-14T02:10:01.735Z,13.50
2017-06-14T02:12:30.119Z,10.23
2017-06-14T02:14:58.431Z,11.23
2017-06-14T02:17:27.493Z,9.83
2017-06-14T02:19:55.817Z,10.80
2017-06-14T02:22:24.545Z,9.03
2017-06-14T02:24:52.836Z,11.30
2017-06-14T02:27:21.125Z,9.83
2017-06-14T02:29:49.888Z,9.80
2017-06-14T02:32:18.301Z,11.10
2017-06-14T02:34:47.317Z,10.90
2017-06-14T02:37:16.165Z,10.53
2017-06-14T02:39:44.589Z,10.10
2017-06-14T02:42:13.156Z,11.07
2017-06-14T02:44:41.897Z,10.97
2017-06-14T02:47:11.564Z,12.30
2017-06-14T02:49:40.380Z,11.30
2017-06-14T02:52:09.157Z,10.20
2017-06-14T02:54:37.508Z,11.10
2017-06-14T02:57:06.035Z,13.40
2017-06-14T02:59:34.609Z,11.80
2017-06-14T03:02:02.896Z,11.47
2017-06-14T03:04:31.275Z,11.83
2017-06-14T03:06:59.967Z,10.13
2017-06-14T03:09:28.756Z,10.80
2017-06-14T03:11:57.146Z,10.43
2017-06-14T03:14:25.901Z,11.13
2017-06-14T03:16:54.213Z,11.20
2017-06-14T03:19:22.494Z,10.97
2017-06-14T03:21:52.804Z,10.47
2017-06-14T03:24:21.109Z,10.33
2017-06-14T03:26:49.489Z,11.10
2017-06-14T03:29:17.878Z,9.63
2017-06-14T03:31:46.365Z,10.90
2017-06-14T03:34:14.861Z,11.83
2017-06-14T03:36:44.154Z,13.03
2017-06-14T03:39:12.549Z,11.43
2017-06-14T03:41:41.324Z,9.83
2017-06-14T03:44:11.349Z,10.87
2017-06-14T03:46:39.837Z,11.37
2017-06-14T03:49:10.256Z,9.63
2017-06-14T03:51:38.549Z,10.83
2017-06-14T03:54:06.943Z,11.10
2017-06-14T03:56:35.725Z,11.60
2017-06-14T03:59:04.114Z,11.37
2017-06-14T04:01:32.413Z,13.27
2017-06-14T04:04:01.641Z,9.73
2017-06-14T04:06:30.797Z,10.03
2017-06-14T04:08:59.472Z,10.60
2017-06-14T04:11:28.393Z,11.17
2017-06-14T04:14:00.344Z,9.90
2017-06-14T04:16:28.733Z,9.90
2017-06-14T04:18:58.744Z,10.67
2017-06-14T04:21:27.129Z,9.20
2017-06-14T04:23:56.135Z,9.97
2017-06-14T04:26:24.461Z,9.43
2017-06-14T04:28:52.833Z,9.67
2017-06-14T04:31:21.789Z,8.23
2017-06-14T04:33:50.805Z,11.53
2017-06-14T04:36:19.188Z,10.00
2017-06-14T04:38:48.508Z,10.10
2017-06-14T04:41:16.832Z,10.20
2017-06-14T04:43:45.157Z,9.10
2017-06-14T04:46:14.141Z,9.33
2017-06-14T04:48:42.541Z,9.63
2017-06-14T04:51:11.330Z,10.63
2017-06-14T04:53:39.716Z,9.50
2017-06-14T04:56:08.482Z,11.00
2017-06-14T04:58:36.772Z,8.83
2017-06-14T05:01:05.075Z,10.80
2017-06-14T05:03:33.789Z,9.50
2017-06-14T05:06:03.375Z,9.37
2017-06-14T05:08:31.759Z,10.73
2017-06-14T05:11:00.640Z,9.40
2017-06-14T05:13:29.342Z,9.93
2017-06-14T05:15:58.666Z,9.27
2017-06-14T05:18:28.149Z,9.70
2017-06-14T05:20:56.490Z,9.80
2017-06-14T05:23:24.808Z,9.50
2017-06-14T05:25:53.112Z,10.10
2017-06-14T05:28:22.101Z,9.37
2017-06-14T05:30:51.117Z,10.30
2017-06-14T05:33:20.193Z,8.50
2017-06-14T05:35:48.484Z,8.50
2017-06-14T05:38:16.843Z,8.37
2017-06-14T05:40:45.453Z,7.70
2017-06-14T05:43:13.821Z,7.70
2017-06-14T05:45:42.210Z,8.30
2017-06-14T05:48:10.604Z,9.60
2017-06-14T05:50:38.896Z,7.70
2017-06-14T05:53:07.978Z,9.30
2017-06-14T05:55:36.297Z,8.67
2017-06-14T05:58:05.364Z,8.20
2017-06-14T06:00:34.512Z,8.40
2017-06-14T06:03:02.848Z,8.33
2017-06-14T06:05:31.845Z,8.90
2017-06-14T06:08:00.232Z,9.50
2017-06-14T06:10:28.608Z,8.60
2017-06-14T06:12:57.298Z,7.60
2017-06-14T06:15:25.688Z,7.87
2017-06-14T06:17:54.485Z,8.83
2017-06-14T06:20:22.845Z,7.27
2017-06-14T06:22:51.139Z,7.33
2017-06-14T06:25:19.423Z,7.20
2017-06-14T06:27:47.796Z,7.97
2017-06-14T06:30:16.091Z,6.07
2017-06-14T06:32:44.415Z,6.60
2017-06-14T06:35:12.767Z,7.60
2017-06-14T06:37:41.141Z,7.33
2017-06-14T06:40:09.452Z,7.03
2017-06-14T06:42:38.520Z,6.37
2017-06-14T06:45:06.893Z,7.40
2017-06-14T06:47:35.990Z,6.37
2017-06-14T06:50:04.381Z,7.83
2017-06-14T06:52:32.765Z,6.90
2017-06-14T06:55:01.260Z,8.60
2017-06-14T06:57:30.044Z,9.30
2017-06-14T06:59:58.348Z,8.27
2017-06-14T07:02:27.062Z,10.70
2017-06-14T07:04:56.147Z,8.73
2017-06-14T07:07:25.221Z,9.63
2017-06-14T07:09:53.634Z,7.87
2017-06-14T07:12:22.413Z,6.90
2017-06-14T07:14:50.712Z,6.97
2017-06-14T07:17:20.396Z,5.93
2017-06-14T07:19:49.746Z,7.53
2017-06-14T07:22:18.086Z,6.70
2017-06-14T07:24:46.878Z,6.93
2017-06-14T07:27:15.388Z,7.70
2017-06-14T07:29:44.874Z,6.20
2017-06-14T07:32:13.361Z,6.60
2017-06-14T07:34:41.739Z,7.20
2017-06-14T07:37:10.019Z,5.50
2017-06-14T07:39:38.710Z,6.60
2017-06-14T07:42:07.499Z,5.80
2017-06-14T07:44:35.800Z,6.13
2017-06-14T07:47:04.560Z,6.27
2017-06-14T07:49:32.874Z,5.63
2017-06-14T07:52:01.246Z,6.03
2017-06-14T07:54:30.556Z,6.17
2017-06-14T07:56:59.863Z,5.77
2017-06-14T07:59:28.344Z,5.13
2017-06-14T08:01:56.625Z,5.77
2017-06-14T08:04:25.314Z,6.57
2017-06-14T08:06:54.359Z,5.83
2017-06-14T08:09:23.504Z,5.93
2017-06-14T08:11:51.807Z,6.53
2017-06-14T08:14:20.196Z,5.73
2017-06-14T08:16:48.798Z,5.97
2017-06-14T08:19:20.106Z,6.27
2017-06-14T08:21:48.377Z,5.70
2017-06-14T08:24:16.891Z,5.27
2017-06-14T08:26:46.410Z,6.47
2017-06-14T08:29:15.389Z,5.27
2017-06-14T08:31:43.776Z,4.70
2017-06-14T08:34:12.156Z,6.10
2017-06-14T08:36:41.465Z,6.80
2017-06-14T08:39:10.134Z,6.23
2017-06-14T08:41:38.480Z,7.00
2017-06-14T08:44:07.483Z,6.40
2017-06-14T08:46:35.854Z,6.67
2017-06-14T08:49:04.529Z,5.43
2017-06-14T08:51:32.919Z,4.90
2017-06-14T08:54:01.805Z,6.43
2017-06-14T08:56:31.955Z,5.07
2017-06-14T08:59:02.308Z,5.90
2017-06-14T09:01:31.316Z,5.37
2017-06-14T09:03:59.591Z,6.07
2017-06-14T09:06:27.949Z,5.83
2017-06-14T09:08:57.758Z,6.17
2017-06-14T09:11:26.068Z,4.97
2017-06-14T09:13:54.765Z,5.27
2017-06-14T09:16:23.037Z,4.93
2017-06-14T09:18:51.370Z,5.10
2017-06-14T09:21:19.771Z,4.97
2017-06-14T09:23:48.830Z,5.07
2017-06-14T09:26:17.236Z,4.07
2017-06-14T09:28:45.531Z,5.00
2017-06-14T09:31:14.608Z,4.50
2017-06-14T09:33:42.992Z,4.47
2017-06-14T09:36:11.629Z,4.50
2017-06-14T09:38:39.977Z,4.37
2017-06-14T09:41:08.332Z,3.83
2017-06-14T09:43:36.742Z,4.93
2017-06-14T09:46:05.421Z,4.70
2017-06-14T09:48:34.546Z,5.20
2017-06-14T09:51:03.634Z,4.33
2017-06-14T09:53:32.959Z,4.27
2017-06-14T09:56:02.026Z,4.10
2017-06-14T09:58:51.404Z,3.63
2017-06-14T10:01:19.682Z,4.63
2017-06-14T10:03:48.013Z,3.53
2017-06-14T10:06:16.735Z,3.43
2017-06-14T10:08:45.424Z,3.20
2017-06-14T10:11:15.095Z,4.22
2017-06-14T10:13:43.413Z,3.43
2017-06-14T10:16:12.805Z,3.93
2017-06-14T10:18:42.296Z,3.57
2017-06-14T10:21:10.601Z,3.93
2017-06-14T10:23:39.912Z,2.80
2017-06-14T10:26:09.293Z,2.90
2017-06-14T10:28:38.388Z,3.23
2017-06-14T10:31:08.301Z,3.67
2017-06-14T10:33:37.457Z,3.03
2017-06-14T10:36:06.521Z,3.43
2017-06-14T10:38:36.474Z,3.50
2017-06-14T10:41:05.271Z,3.67
2017-06-14T10:43:33.588Z,3.60
2017-06-14T10:46:01.969Z,3.90
2017-06-14T10:48:30.377Z,3.20
2017-06-14T10:50:59.667Z,3.80
2017-06-14T10:53:28.870Z,3.10
2017-06-14T10:55:58.069Z,3.70
2017-06-14T10:58:26.367Z,4.03
2017-06-14T11:00:54.665Z,2.97
2017-06-14T11:03:23.753Z,3.47
2017-06-14T11:05:52.840Z,2.57
2017-06-14T11:08:21.149Z,3.00
2017-06-14T11:10:49.446Z,2.57
2017-06-14T11:13:18.488Z,3.20
2017-06-14T11:15:46.888Z,3.60
2017-06-14T11:18:15.212Z,3.10
2017-06-14T11:20:43.541Z,3.00
2017-06-14T11:23:12.440Z,3.87
2017-06-14T11:25:41.600Z,3.62
2017-06-14T11:28:10.621Z,3.03
2017-06-14T11:30:40.169Z,3.33
2017-06-14T11:33:08.961Z,2.80
2017-06-14T11:35:38.053Z,3.13
2017-06-14T11:38:06.468Z,3.00
2017-06-14T11:40:34.751Z,3.13
2017-06-14T11:43:04.344Z,2.27
2017-06-14T11:45:32.712Z,2.20
2017-06-14T11:48:01.534Z,3.10
2017-06-14T11:50:30.635Z,2.90
2017-06-14T11:53:00.525Z,2.80
2017-06-14T11:55:28.893Z,3.40
2017-06-14T11:57:57.260Z,2.50
2017-06-14T12:00:25.617Z,3.10
2017-06-14T12:02:54.950Z,2.80
2017-06-14T12:05:23.277Z,2.97
2017-06-14T12:07:51.768Z,3.07
2017-06-14T12:10:20.172Z,2.77
2017-06-14T12:12:49.552Z,3.30
2017-06-14T12:15:17.973Z,2.40
2017-06-14T12:17:46.477Z,1.90
2017-06-14T12:20:15.238Z,2.90
2017-06-14T12:22:43.949Z,2.70
2017-06-14T12:25:12.582Z,2.80
2017-06-14T12:27:41.155Z,3.10
2017-06-14T12:30:10.282Z,3.10
2017-06-14T12:32:38.602Z,2.97
2017-06-14T12:35:07.216Z,3.20
2017-06-14T12:37:35.569Z,2.57
2017-06-14T12:40:03.891Z,2.53
2017-06-14T12:42:32.204Z,2.80
2017-06-14T12:45:00.518Z,2.00
2017-06-14T12:47:29.969Z,2.43
2017-06-14T12:49:58.761Z,2.83
2017-06-14T12:52:27.142Z,2.83
2017-06-14T12:54:59.235Z,2.60
2017-06-14T12:57:28.731Z,2.60
2017-06-14T12:59:57.968Z,2.70
2017-06-14T13:02:27.420Z,2.70
2017-06-14T13:04:56.346Z,2.80
2017-06-14T13:07:24.729Z,2.53
2017-06-14T13:09:54.223Z,2.40
2017-06-14T13:12:22.505Z,2.50
2017-06-14T13:14:51.286Z,2.33
2017-06-14T13:17:20.798Z,2.50
2017-06-14T13:19:50.069Z,2.60
2017-06-14T13:22:18.410Z,2.63
2017-06-14T13:24:46.783Z,2.57
2017-06-14T13:27:15.586Z,4.37
2017-06-14T13:29:44.869Z,2.57
2017-06-14T13:32:13.262Z,3.00
2017-06-14T13:34:43.639Z,3.37
2017-06-14T13:37:13.412Z,2.13
2017-06-14T13:39:42.519Z,2.10
2017-06-14T13:42:11.868Z,2.30
2017-06-14T13:44:41.423Z,2.10
2017-06-14T13:47:10.367Z,2.80
2017-06-14T13:49:41.710Z,2.57
2017-06-14T13:52:10.097Z,2.83
2017-06-14T13:54:39.309Z,2.40
2017-06-14T13:57:09.553Z,2.70
2017-06-14T13:59:38.140Z,2.60
2017-06-14T14:02:06.449Z,2.50
2017-06-14T14:04:34.731Z,2.47
2017-06-14T14:07:04.210Z,2.23
2017-06-14T14:09:33.697Z,2.50
2017-06-14T14:12:02.040Z,2.47
2017-06-14T14:14:30.637Z,2.40
2017-06-14T14:16:59.721Z,3.83
2017-06-14T14:19:28.817Z,2.40
2017-06-14T14:21:57.108Z,2.13
2017-06-14T14:24:28.221Z,2.47
2017-06-14T14:26:56.736Z,2.80
2017-06-14T14:29:26.803Z,3.03
2017-06-14T14:31:55.130Z,2.97
2017-06-14T14:34:24.186Z,3.50
2017-06-14T14:36:52.541Z,2.83
2017-06-14T14:39:20.845Z,2.83
2017-06-14T14:41:49.870Z,3.00
2017-06-14T14:44:18.189Z,2.50
2017-06-14T14:46:47.269Z,2.47
2017-06-14T14:49:15.982Z,2.63
2017-06-14T14:51:45.429Z,2.60
2017-06-14T14:54:13.772Z,2.70
2017-06-14T14:56:42.466Z,2.80
2017-06-14T14:59:11.570Z,2.37
2017-06-14T15:01:40.679Z,2.80
2017-06-14T15:04:09.768Z,2.63
2017-06-14T15:06:38.084Z,2.70
2017-06-14T15:09:06.829Z,2.47
2017-06-14T15:11:35.906Z,2.50
2017-06-14T15:14:04.215Z,2.50
2017-06-14T15:16:32.533Z,2.33
2017-06-14T15:19:02.503Z,2.30
2017-06-14T15:21:31.665Z,2.10
2017-06-14T15:24:00.911Z,2.10
2017-06-14T15:26:30.412Z,2.00
2017-06-14T15:28:59.423Z,2.77
2017-06-14T15:31:29.045Z,2.33
2017-06-14T15:33:57.325Z,2.20
2017-06-14T15:36:25.646Z,2.60
2017-06-14T15:38:53.969Z,3.30
2017-06-14T15:41:24.736Z,2.73
2017-06-14T15:43:53.006Z,2.27
2017-06-14T15:46:22.208Z,3.03
2017-06-14T15:48:51.961Z,3.23
2017-06-14T15:51:20.757Z,3.30
2017-06-14T15:53:49.797Z,2.57
2017-06-14T15:56:18.922Z,3.30
2017-06-14T15:58:47.225Z,3.03
2017-06-14T16:01:15.598Z,2.40
2017-06-14T16:03:44.564Z,3.43
2017-06-14T16:06:12.889Z,3.60
2017-06-14T16:08:41.915Z,3.40
2017-06-14T16:11:10.227Z,3.37
2017-06-14T16:13:38.496Z,3.97
2017-06-14T16:16:06.822Z,3.20
2017-06-14T16:18:35.878Z,2.90
2017-06-14T16:21:04.202Z,3.97
2017-06-14T16:23:33.380Z,3.67
2017-06-14T16:26:02.478Z,3.27
2017-06-14T16:28:32.345Z,2.87
2017-06-14T16:31:00.664Z,3.70
2017-06-14T16:33:29.024Z,2.83
2017-06-14T16:35:57.556Z,3.03
2017-06-14T16:38:26.257Z,3.00
2017-06-14T16:40:55.357Z,3.50
2017-06-14T16:43:23.723Z,3.10
2017-06-14T16:45:52.126Z,3.07
2017-06-14T16:48:20.723Z,3.83
2017-06-14T16:50:49.526Z,3.70
2017-06-14T16:53:19.916Z,3.30
2017-06-14T16:55:48.293Z,3.60
2017-06-14T16:58:16.638Z,2.93
2017-06-14T17:00:45.679Z,3.10
2017-06-14T17:03:14.685Z,3.20
2017-06-14T17:05:44.012Z,2.93
2017-06-14T17:08:13.783Z,2.90
2017-06-14T17:10:42.449Z,3.50
2017-06-14T17:13:10.891Z,2.70
2017-06-14T17:15:39.690Z,2.90
2017-06-14T17:18:08.893Z,3.00
2017-06-14T17:20:38.417Z,2.17
2017-06-14T17:23:06.966Z,2.80
2017-06-14T17:25:35.276Z,2.27
2017-06-14T17:28:04.366Z,2.63
2017-06-14T17:30:32.953Z,2.80
2017-06-14T17:33:01.256Z,2.50
2017-06-14T17:35:29.861Z,2.73
2017-06-14T17:37:58.174Z,2.63
2017-06-14T17:40:27.079Z,4.10
2017-06-14T17:42:56.644Z,3.27
2017-06-14T17:45:25.321Z,2.40
2017-06-14T17:47:54.500Z,2.90
2017-06-14T17:50:23.492Z,2.97
2017-06-14T17:52:52.058Z,1.90
2017-06-14T17:55:20.365Z,2.30
2017-06-14T17:57:48.981Z,2.63
2017-06-14T18:00:18.062Z,3.40
2017-06-14T18:02:47.145Z,3.10
2017-06-14T18:05:16.356Z,2.77
2017-06-14T18:07:44.720Z,2.50
2017-06-14T18:10:13.657Z,3.33
2017-06-14T18:12:43.551Z,3.30
2017-06-14T18:15:12.199Z,3.50
2017-06-14T18:17:40.661Z,3.40
2017-06-14T18:20:10.066Z,2.40
2017-06-14T18:22:39.865Z,2.30
2017-06-14T18:25:08.988Z,2.00
2017-06-14T18:27:38.091Z,2.10
2017-06-14T18:30:08.080Z,2.40
2017-06-14T18:32:36.790Z,2.00
2017-06-14T18:35:05.125Z,2.50
2017-06-14T18:37:33.546Z,1.77
2017-06-14T18:40:01.853Z,2.13
2017-06-14T18:42:30.350Z,2.07
2017-06-14T18:44:58.664Z,1.90
2017-06-14T18:47:27.286Z,1.80
2017-06-14T18:49:56.464Z,1.87
2017-06-14T18:52:24.834Z,2.27
2017-06-14T18:54:53.133Z,2.30
2017-06-14T18:57:21.425Z,1.90
2017-06-14T18:59:49.880Z,1.80
2017-06-14T19:02:18.282Z,2.00
2017-06-14T19:04:47.891Z,1.80
2017-06-14T19:07:16.197Z,1.90
2017-06-14T19:09:45.085Z,1.77
2017-06-14T19:12:14.150Z,1.93
2017-06-14T19:14:42.764Z,2.00
2017-06-14T19:17:11.429Z,2.53
2017-06-14T19:19:39.729Z,1.87
2017-06-14T19:22:08.059Z,2.30
2017-06-14T19:24:37.119Z,1.97
2017-06-14T19:27:05.455Z,2.00
2017-06-14T19:29:33.766Z,2.57
2017-06-14T19:32:03.114Z,2.10
2017-06-14T19:34:32.231Z,1.90
2017-06-14T19:37:01.500Z,1.70
2017-06-14T19:39:30.995Z,2.03
2017-06-14T19:41:59.271Z,1.80
2017-06-14T19:44:27.683Z,2.27
2017-06-14T19:46:56.030Z,2.23
2017-06-14T19:49:24.436Z,2.00
2017-06-14T19:51:52.827Z,2.07
2017-06-14T19:54:21.713Z,1.80
2017-06-14T19:56:51.409Z,1.50
2017-06-14T19:59:19.711Z,2.23
2017-06-14T20:01:48.124Z,2.10
2017-06-14T20:04:17.297Z,2.40
2017-06-14T20:06:45.701Z,1.90
2017-06-14T20:09:15.374Z,2.60
2017-06-14T20:11:44.329Z,2.87
2017-06-14T20:14:13.540Z,2.47
2017-06-14T20:16:41.952Z,2.60
2017-06-14T20:19:11.174Z,1.83
2017-06-14T20:21:39.656Z,2.77
2017-06-14T20:24:08.436Z,2.50
2017-06-14T20:26:37.449Z,1.80
2017-06-14T20:29:05.849Z,1.90
2017-06-14T20:31:34.934Z,2.30
2017-06-14T20:34:03.258Z,2.50
2017-06-14T20:36:32.993Z,2.47
2017-06-14T20:39:02.149Z,2.43
2017-06-14T20:41:31.236Z,2.13
2017-06-14T20:44:00.070Z,2.53
2017-06-14T20:46:28.573Z,2.33
2017-06-14T20:48:56.943Z,2.50
2017-06-14T20:51:25.237Z,2.70
2017-06-14T20:53:54.261Z,2.70
2017-06-14T20:56:22.577Z,2.30
2017-06-14T20:58:51.653Z,2.93
2017-06-14T21:01:20.056Z,2.60
2017-06-14T21:03:48.937Z,2.40
2017-06-14T21:06:18.137Z,2.50
2017-06-14T21:08:47.197Z,2.60
2017-06-14T21:11:16.302Z,3.23
2017-06-14T21:13:44.976Z,2.33
2017-06-14T21:16:14.175Z,2.70
2017-06-14T21:18:43.212Z,2.70
2017-06-14T21:21:11.871Z,2.40
2017-06-14T21:23:40.205Z,1.90
2017-06-14T21:26:08.720Z,2.10
2017-06-14T21:28:37.821Z,2.20
2017-06-14T21:31:06.141Z,2.40
2017-06-14T21:33:34.489Z,2.83
2017-06-14T21:36:04.957Z,2.30
2017-06-14T21:38:33.253Z,2.83
2017-06-14T21:41:02.485Z,2.57
2017-06-14T21:43:30.909Z,2.50
2017-06-14T21:45:59.729Z,2.73
2017-06-14T21:48:28.920Z,2.53
2017-06-14T21:50:57.272Z,2.80
2017-06-14T21:53:27.241Z,3.10
2017-06-14T21:55:55.560Z,3.20
2017-06-14T21:58:23.981Z,4.87
2017-06-14T22:00:52.296Z,3.40
2017-06-14T22:03:20.600Z,4.10
2017-06-14T22:05:49.774Z,5.50
2017-06-14T22:08:18.237Z,4.67
2017-06-14T22:10:46.558Z,5.90
2017-06-14T22:13:14.929Z,6.10
2017-06-14T22:15:43.334Z,6.90
2017-06-14T22:18:11.604Z,7.13
2017-06-14T22:20:40.383Z,4.67
2017-06-14T22:23:08.684Z,4.57
2017-06-14T22:25:37.056Z,4.20
2017-06-14T22:28:05.565Z,4.87
2017-06-14T22:30:34.869Z,5.57
2017-06-14T22:33:03.933Z,5.17
2017-06-14T22:35:32.309Z,4.50
2017-06-14T22:38:00.628Z,5.60
2017-06-14T22:40:29.280Z,5.37
2017-06-14T22:42:57.896Z,5.47
2017-06-14T22:45:26.600Z,5.47
2017-06-14T22:47:55.647Z,5.17
2017-06-14T22:50:23.938Z,5.53
2017-06-14T22:52:52.326Z,5.73
2017-06-14T22:55:21.442Z,5.60
2017-06-14T22:57:50.123Z,5.40
2017-06-14T23:00:18.404Z,5.30
2017-06-14T23:02:46.802Z,5.73
2017-06-14T23:05:15.801Z,6.63
2017-06-14T23:07:45.000Z,6.37
2017-06-14T23:10:13.301Z,6.77
2017-06-14T23:12:42.695Z,5.50
2017-06-14T23:15:10.998Z,6.67
2017-06-14T23:17:41.213Z,7.03
2017-06-14T23:20:10.609Z,6.77
2017-06-14T23:22:39.011Z,6.17
2017-06-14T23:25:08.076Z,6.70
2017-06-14T23:27:36.462Z,7.37
2017-06-14T23:30:04.782Z,6.53
2017-06-14T23:32:34.676Z,8.33
2017-06-14T23:35:03.964Z,6.40
2017-06-14T23:37:32.877Z,7.13
2017-06-14T23:40:01.181Z,6.80
2017-06-14T23:42:30.520Z,6.97
2017-06-14T23:44:59.555Z,5.87
2017-06-14T23:47:28.491Z,7.30
2017-06-14T23:49:56.804Z,7.57
2017-06-14T23:52:25.104Z,5.57
2017-06-14T23:54:53.390Z,7.80
2017-06-14T23:57:21.792Z,8.07
2017-06-14T23:59:50.162Z,9.20
